CSZ3 weather

Mont-Tremblant / St-Jovite Airport
Mont-Tremblant, Quebec, Canada

Public forecast

Using degrees Celsius for public forecast. Weather courtesy of forecast.io.

METAR (pilot weather report)

Closest report is Montreal International (Mirabel) Airport, 36.5 nm (67.6 km) SE. Retrieved 2019/05/21 11:00 UTC (1 minute ago):

CYMX 211100Z 26005G16KT 240V300 40SM BKN022 BKN100 08/04 A2981 RMK SC6AC1 SLP097

TAF (pilot weather forecast)

Closest forecast is Montreal International (Mirabel) Airport, 36.5 nm (67.6 km) SE. Retrieved 2019/05/21 06:42 UTC (4 hours ago):

TAF CYMX 210538Z 2106/2206 28008KT P6SM SCT020 OVC080 TEMPO 2106/2108 BKN020 OVC080 FM210800 27008KT P6SM BKN030 TEMPO 2108/2113 BKN020 BECMG 2111/2113 29015G25KT FM211800 31015G30KT P6SM BKN050 BECMG 2122/2124 33008KT FM220300 33005KT P6SM SCT060 RMK NXT FCST BY 211200Z